Accueil
METAR-TAF:

METAR-TAF

Aéroports :

Dallas / Fort Worth, Texas, États-Unis

Aéroport international de Dallas-Fort Worth

latitude: 32-53-49N, longitude: 097-01-19W, altitude: 183 m

Observation

Le bulletin a été fait il y a 23 minutes, à 14:53 UTC
Vent 14 kt de sud
Température 28°C
Humidité 74%
Pression 1013 hPa
Visibilité: 16.1 km
Nuages épars à une hauteur de 1600 ft
Nuages fragmentés à une hauteur de 30000 ft

METAR: KDFW 191453Z 17014KT 10SM SCT016 BKN300 28/23 A2992 RMK AO2 SLP122 T02780228 53008

Heure: 10:16 (15:16 UTC)

Prévision

Le bulletin a été fait il y a 15 minutes, à 15:01 UTC
Prévision valable du 19 à 15 UTC au 20 à 18 UTC
Vent 15 kt de sud
Visibilité: 10 km
Nuages épars à une hauteur de 3000 ft

TAF: KDFW 191501Z 1915/2018 18015KT P6SM SCT030

Observations et prévisions météorologiques de plus de 4000 aéroports (messages METAR et TAF).

Les stations disponibles sont représentées par des disques jaunes et rouges sur la carte.

Passer la souris dessus pour voir le nom de la station.

Cliquer dessus pour voir les observations et prévisions météorologiques.

Pour changer de carte: cliquez sur les boutons verts avec une croix noire pour zoomer, sur le bouton vert avec un tiret pour effectuer un zoom arrière, ou sur les flèches vertes pour les cartes adjacentes.


METAR-TAF: